Time;durP1;ratioP1;P1;durP2;ratioP2;P2;SDS_P1;SDS_P2;PMS_P1;PMS_P2;Temp;Humidity;BMP_temperature;BMP_pressure;BME280_temperature;BME280_humidity;BME280_pressure;Samples;Min_cycle;Max_cycle;Signal;HPM_P1;HPM_P2
2024/03/01 00:01:25;;;;;;;17.33;12.20;;;8.60;99.90;;;;;;5077352;28;20583;-41
2024/03/01 00:03:51;;;;;;;11.07;7.27;;;8.80;1.00;;;;;;5077095;28;20441;-42
2024/03/01 00:06:17;;;;;;;10.60;8.27;;;9.30;99.90;;;;;;5077114;28;20177;-41
2024/03/01 00:08:42;;;;;;;13.60;8.70;;;10.00;99.90;;;;;;5076312;28;20260;-42
2024/03/01 00:11:08;;;;;;;12.90;10.03;;;10.60;99.90;;;;;;5075940;28;20551;-41
2024/03/01 00:13:34;;;;;;;11.67;9.03;;;11.20;99.90;;;;;;5075985;28;20264;-41
2024/03/01 00:15:59;;;;;;;12.27;8.60;;;11.70;34.00;;;;;;5075280;28;20478;-41
2024/03/01 00:18:25;;;;;;;10.83;9.30;;;12.20;1.00;;;;;;5076378;28;20197;-42
2024/03/01 00:20:51;;;;;;;13.87;9.40;;;12.60;99.90;;;;;;5074648;28;20157;-41
2024/03/01 00:23:17;;;;;;;11.50;9.27;;;12.90;20.90;;;;;;5075207;28;20267;-44
2024/03/01 00:25:44;;;;;;;13.87;9.43;;;13.20;99.90;;;;;;5075007;28;20213;-41
2024/03/01 00:28:10;;;;;;;13.00;10.20;;;13.50;1.00;;;;;;5074814;28;20435;-44
2024/03/01 00:30:35;;;;;;;12.20;10.47;;;13.70;1.00;;;;;;5075009;28;20427;-43
2024/03/01 00:33:03;;;;;;;11.87;10.00;;;13.90;1.00;;;;;;5075276;28;20425;-41
2024/03/01 00:35:29;;;;;;;12.33;10.90;;;14.00;1.00;;;;;;5075694;28;20201;-41
2024/03/01 00:37:54;;;;;;;10.70;9.60;;;14.20;99.90;;;;;;5074394;28;20427;-41
2024/03/01 00:40:20;;;;;;;11.40;9.87;;;14.30;1.00;;;;;;5075334;28;20431;-44
2024/03/01 00:42:46;;;;;;;10.87;9.17;;;14.40;99.90;;;;;;5074172;28;20191;-42
2024/03/01 00:45:11;;;;;;;12.00;9.90;;;14.60;79.60;;;;;;5077121;28;20180;-42
2024/03/01 00:47:47;;;;;;;11.83;9.73;;;14.60;1.00;;;;;;5077267;28;20270;-42
2024/03/01 00:50:15;;;;;;;11.97;10.53;;;14.70;1.00;;;;;;5080044;28;20216;-45
2024/03/01 00:52:42;;;;;;;13.37;10.50;;;14.80;1.00;;;;;;5080260;28;20426;-43
2024/03/01 00:55:07;;;;;;;10.67;9.53;;;14.90;99.90;;;;;;5079258;28;20581;-42
2024/03/01 00:57:33;;;;;;;12.07;10.40;;;14.90;99.90;;;;;;5078648;28;20550;-42
2024/03/01 00:59:59;;;;;;;10.70;9.60;;;14.90;99.90;;;;;;5077720;28;20196;-42
2024/03/01 01:02:25;;;;;;;17.57;14.97;;;14.90;99.90;;;;;;5079096;28;20192;-42
2024/03/01 01:04:50;;;;;;;23.93;19.10;;;14.80;11.50;;;;;;5077132;28;20423;-42
2024/03/01 01:07:16;;;;;;;23.37;18.80;;;14.30;1.00;;;;;;5077287;28;20172;-41
2024/03/01 01:09:42;;;;;;;22.43;18.13;;;13.70;1.00;;;;;;5079154;28;20200;-42
2024/03/01 01:12:08;;;;;;;26.10;21.00;;;13.10;1.00;;;;;;5079583;28;20225;-43
2024/03/01 01:14:34;;;;;;;25.60;19.30;;;12.60;1.00;;;;;;5079669;28;20423;-41
2024/03/01 01:17:01;;;;;;;22.37;19.20;;;12.20;1.00;;;;;;5079874;28;20438;-45
2024/03/01 01:19:26;;;;;;;24.90;20.70;;;11.80;1.00;;;;;;5079340;28;20431;-42
2024/03/01 01:21:52;;;;;;;24.00;19.53;;;11.50;1.00;;;;;;5079472;28;20900;-42
2024/03/01 01:24:18;;;;;;;23.93;19.30;;;11.20;1.00;;;;;;5079949;28;20176;-42
2024/03/01 01:26:44;;;;;;;24.73;19.40;;;10.90;1.00;;;;;;5062635;28;20244;-42
2024/03/01 01:29:09;;;;;;;23.30;19.47;;;10.80;1.00;;;;;;5079129;28;20185;-42
2024/03/01 01:31:35;;;;;;;28.10;19.90;;;10.60;48.90;;;;;;5079712;28;20181;-43
2024/03/01 01:34:01;;;;;;;27.37;21.97;;;10.50;99.90;;;;;;5079637;28;20204;-40
2024/03/01 01:36:26;;;;;;;27.13;20.87;;;10.40;99.90;;;;;;5080379;28;20201;-44
2024/03/01 01:38:52;;;;;;;27.03;21.30;;;10.20;99.90;;;;;;5079841;28;20280;-43
2024/03/01 01:41:18;;;;;;;26.00;20.63;;;10.10;99.90;;;;;;5080057;28;20516;-42
2024/03/01 01:43:44;;;;;;;26.43;21.77;;;10.10;1.00;;;;;;5078606;28;20177;-46
2024/03/01 01:46:11;;;;;;;26.10;21.70;;;10.00;1.00;;;;;;5061994;28;20185;-42
2024/03/01 01:48:37;;;;;;;32.27;22.93;;;10.00;1.00;;;;;;5079702;28;20185;-43
2024/03/01 01:51:03;;;;;;;28.60;21.90;;;9.90;12.60;;;;;;5079270;28;20518;-42
2024/03/01 01:53:29;;;;;;;29.47;23.00;;;9.80;99.90;;;;;;5078416;28;20542;-43
2024/03/01 01:55:55;;;;;;;27.63;21.23;;;9.80;99.90;;;;;;5078126;28;20785;-45
2024/03/01 01:58:21;;;;;;;28.90;22.40;;;9.80;99.90;;;;;;5078919;28;20192;-42
2024/03/01 02:00:49;;;;;;;26.60;21.57;;;9.70;1.00;;;;;;5078298;28;20257;-42
2024/03/01 02:03:16;;;;;;;29.60;21.90;;;9.70;1.00;;;;;;5078431;28;20418;-43
2024/03/01 02:05:41;;;;;;;28.43;22.83;;;9.70;1.00;;;;;;5077576;28;20410;-42
2024/03/01 02:08:07;;;;;;;29.03;22.70;;;9.60;1.00;;;;;;5077768;28;20713;-43
2024/03/01 02:10:33;;;;;;;31.20;23.60;;;9.60;91.10;;;;;;5078211;28;20258;-45
2024/03/01 02:13:02;;;;;;;29.00;23.77;;;9.60;99.90;;;;;;5078252;28;20256;-42
2024/03/01 02:15:29;;;;;;;27.50;21.50;;;9.50;99.90;;;;;;5078776;28;20458;-41
2024/03/01 02:17:55;;;;;;;27.40;21.30;;;9.50;1.00;;;;;;5079186;28;20412;-42
2024/03/01 02:20:22;;;;;;;27.90;21.40;;;9.50;1.00;;;;;;5078284;28;20419;-42
2024/03/01 02:22:58;;;;;;;28.70;21.00;;;9.40;1.00;;;;;;5060638;28;20427;-42
2024/03/01 02:25:23;;;;;;;29.27;22.13;;;9.40;1.00;;;;;;5077493;28;20482;-43
2024/03/01 02:27:49;;;;;;;30.00;20.30;;;9.40;1.00;;;;;;5077246;28;20439;-42
2024/03/01 02:30:15;;;;;;;27.27;21.80;;;9.40;1.00;;;;;;5077233;28;20268;-42
2024/03/01 02:32:41;;;;;;;29.40;20.73;;;9.30;20.60;;;;;;5078870;28;20260;-42
2024/03/01 02:35:07;;;;;;;27.97;22.33;;;9.30;67.80;;;;;;5077744;28;20566;-41
2024/03/01 02:37:33;;;;;;;26.30;21.27;;;9.30;98.00;;;;;;5078656;28;20847;-43
2024/03/01 02:39:58;;;;;;;29.10;21.23;;;9.30;99.90;;;;;;5078358;28;20423;-41
2024/03/01 02:42:24;;;;;;;27.43;21.27;;;9.20;99.90;;;;;;5077886;28;20260;-42
2024/03/01 02:44:50;;;;;;;28.00;20.60;;;9.20;99.90;;;;;;5078727;28;20251;-43
2024/03/01 02:47:15;;;;;;;28.63;21.93;;;9.20;99.90;;;;;;5078388;28;20254;-41
2024/03/01 02:49:41;;;;;;;28.17;21.03;;;9.20;99.90;;;;;;5077776;28;20181;-42
2024/03/01 02:52:07;;;;;;;27.23;21.07;;;9.10;1.00;;;;;;5079215;28;20181;-41
2024/03/01 02:54:32;;;;;;;27.70;20.40;;;9.10;1.00;;;;;;5078394;28;20275;-42
2024/03/01 02:56:58;;;;;;;29.00;20.73;;;9.10;1.00;;;;;;5077999;28;20177;-42
2024/03/01 02:59:24;;;;;;;26.87;21.37;;;9.10;1.00;;;;;;5078989;28;20230;-41
2024/03/01 03:01:50;;;;;;;30.57;22.77;;;9.10;1.00;;;;;;5078258;28;20423;-43
2024/03/01 03:04:16;;;;;;;30.30;22.23;;;9.10;20.00;;;;;;5079568;28;20423;-42
2024/03/01 03:10:04;;;;;;;28.20;22.77;;;9.10;99.90;;;;;;5077494;28;20737;-42
2024/03/01 03:12:30;;;;;;;30.27;22.53;;;9.10;99.90;;;;;;5076265;28;20463;-44
2024/03/01 03:14:56;;;;;;;30.13;22.40;;;9.10;99.90;;;;;;5076224;28;20768;-44
2024/03/01 03:17:22;;;;;;;29.73;22.13;;;9.00;1.00;;;;;;5077227;28;20181;-44
2024/03/01 03:19:50;;;;;;;26.47;22.43;;;9.00;1.00;;;;;;5077486;28;20841;-42
2024/03/01 03:22:16;;;;;;;32.90;24.37;;;9.00;1.00;;;;;;5077349;28;20703;-41
2024/03/01 03:24:41;;;;;;;28.60;22.83;;;9.00;1.00;;;;;;5074699;28;20427;-41
2024/03/01 03:27:07;;;;;;;31.60;23.40;;;9.00;1.00;;;;;;5076252;28;20455;-41
2024/03/01 03:29:34;;;;;;;30.90;23.20;;;9.00;1.00;;;;;;5077521;28;20177;-42
2024/03/01 03:32:00;;;;;;;27.10;21.40;;;9.00;1.00;;;;;;5076689;28;20821;-42
2024/03/01 03:34:26;;;;;;;28.97;23.73;;;9.00;1.00;;;;;;5077474;28;20529;-44
2024/03/01 03:36:51;;;;;;;25.37;20.97;;;9.00;1.00;;;;;;5077414;28;20188;-41
2024/03/01 03:39:17;;;;;;;25.67;20.60;;;9.00;1.00;;;;;;5077551;28;20238;-41
2024/03/01 03:41:43;;;;;;;28.70;22.00;;;9.00;1.00;;;;;;5077465;28;20456;-45
2024/03/01 03:44:09;;;;;;;33.30;23.93;;;9.00;1.00;;;;;;5076906;28;20192;-42
2024/03/01 03:46:35;;;;;;;31.33;22.83;;;9.00;1.00;;;;;;5077062;28;20825;-43
2024/03/01 03:49:07;;;;;;;29.50;22.20;;;9.00;1.00;;;;;;5076625;28;20451;-42
2024/03/01 03:51:33;;;;;;;29.53;22.23;;;9.00;1.00;;;;;;5074000;28;20419;-42
2024/03/01 03:53:59;;;;;;;29.13;22.07;;;9.00;1.00;;;;;;5074644;28;20427;-41
2024/03/01 03:56:25;;;;;;;31.87;22.40;;;9.00;1.00;;;;;;5076573;28;20481;-46
2024/03/01 03:58:51;;;;;;;31.30;24.67;;;9.00;41.50;;;;;;5074524;28;20265;-42
2024/03/01 04:01:19;;;;;;;36.13;25.37;;;9.00;69.60;;;;;;5076279;28;20252;-42
2024/03/01 04:03:45;;;;;;;29.50;23.10;;;9.00;99.90;;;;;;5074925;28;20431;-41
2024/03/01 04:06:10;;;;;;;31.43;23.43;;;9.00;99.90;;;;;;5076384;28;20431;-42
2024/03/01 04:08:38;;;;;;;28.93;24.23;;;8.90;99.90;;;;;;5075097;28;20504;-41
2024/03/01 04:11:05;;;;;;;28.30;20.97;;;8.90;99.90;;;;;;5074478;28;20188;-43
2024/03/01 04:13:35;;;;;;;33.67;23.73;;;8.90;99.90;;;;;;5059689;28;20501;-43
2024/03/01 04:16:02;;;;;;;32.87;24.93;;;8.90;99.90;;;;;;5076043;28;20455;-42
2024/03/01 04:18:28;;;;;;;30.37;24.60;;;8.90;99.90;;;;;;5058336;28;20431;-43
2024/03/01 04:20:57;;;;;;;29.60;23.77;;;8.90;99.90;;;;;;5077120;28;20438;-43
2024/03/01 04:23:24;;;;;;;28.40;21.77;;;8.90;99.90;;;;;;5077854;28;20182;-42
2024/03/01 04:25:51;;;;;;;30.90;24.03;;;8.90;99.90;;;;;;5079932;28;20514;-43
2024/03/01 04:28:20;;;;;;;29.93;24.90;;;8.90;99.90;;;;;;5063014;28;20731;-41
2024/03/01 04:30:46;;;;;;;35.73;25.60;;;8.90;99.90;;;;;;5081048;28;20430;-43
2024/03/01 04:33:12;;;;;;;29.87;24.03;;;8.90;99.90;;;;;;5080704;28;20423;-42
2024/03/01 04:35:39;;;;;;;34.37;24.30;;;8.90;99.90;;;;;;5080147;28;20478;-41
2024/03/01 04:38:05;;;;;;;30.63;23.43;;;8.90;99.90;;;;;;5078289;28;20659;-41
2024/03/01 04:40:31;;;;;;;35.37;25.23;;;8.90;1.00;;;;;;5077755;28;20400;-42
2024/03/01 04:42:57;;;;;;;34.67;24.87;;;9.00;99.90;;;;;;5077421;28;20658;-41
2024/03/01 04:45:22;;;;;;;32.97;24.17;;;8.90;99.90;;;;;;5060643;28;20177;-41
2024/03/01 04:47:49;;;;;;;27.80;21.90;;;9.00;1.00;;;;;;5077875;28;20499;-41
2024/03/01 04:50:16;;;;;;;31.20;24.37;;;9.00;1.00;;;;;;5077435;28;20176;-41
2024/03/01 04:52:41;;;;;;;32.30;23.07;;;8.90;1.00;;;;;;5077768;28;20452;-42
2024/03/01 04:55:09;;;;;;;27.87;23.30;;;8.90;1.00;;;;;;5060662;28;20919;-42
2024/03/01 04:57:35;;;;;;;27.47;21.70;;;9.00;1.00;;;;;;5077070;28;20193;-42
2024/03/01 05:00:01;;;;;;;33.17;24.00;;;8.90;1.00;;;;;;5076852;28;20428;-42
2024/03/01 05:02:28;;;;;;;31.27;23.87;;;9.00;1.00;;;;;;5075665;28;20697;-42
2024/03/01 05:04:56;;;;;;;30.47;22.00;;;8.90;1.00;;;;;;5077307;28;20423;-42
2024/03/01 05:07:22;;;;;;;28.50;22.07;;;9.00;1.00;;;;;;5078862;28;20498;-42
2024/03/01 05:09:48;;;;;;;32.73;24.33;;;9.00;1.00;;;;;;5078875;28;20482;-43
2024/03/01 05:12:14;;;;;;;32.23;24.60;;;9.00;1.00;;;;;;5077586;28;20502;-44
2024/03/01 05:14:42;;;;;;;33.43;24.60;;;8.90;1.00;;;;;;5078864;28;20196;-42
2024/03/01 05:17:08;;;;;;;31.03;23.77;;;8.90;1.00;;;;;;5044316;28;20173;-41
2024/03/01 05:19:38;;;;;;;34.27;24.70;;;8.90;1.00;;;;;;5079751;28;20438;-44
2024/03/01 05:22:08;;;;;;;31.20;24.20;;;8.90;1.00;;;;;;5079483;28;20419;-41
2024/03/01 05:24:33;;;;;;;35.43;25.17;;;8.90;1.00;;;;;;5078245;28;20450;-43
2024/03/01 05:26:59;;;;;;;36.03;24.50;;;8.90;34.90;;;;;;5077611;28;20849;-42
2024/03/01 05:29:26;;;;;;;31.13;23.90;;;8.90;94.30;;;;;;5077292;28;20185;-41
2024/03/01 05:31:52;;;;;;;31.73;23.37;;;8.90;99.90;;;;;;5077576;28;20437;-43
2024/03/01 05:34:17;;;;;;;32.53;24.80;;;8.90;22.80;;;;;;5076480;28;20838;-39
2024/03/01 05:36:43;;;;;;;34.43;25.20;;;8.90;1.00;;;;;;5076988;28;20529;-42
2024/03/01 05:39:18;;;;;;;33.27;26.00;;;8.90;4.90;;;;;;5076282;28;20292;-41
2024/03/01 05:41:44;;;;;;;33.63;23.60;;;8.90;18.90;;;;;;5076760;28;20177;-43
2024/03/01 05:44:11;;;;;;;33.30;25.30;;;8.90;92.70;;;;;;5075692;28;20423;-42
2024/03/01 05:46:36;;;;;;;31.13;23.13;;;8.90;99.90;;;;;;5075183;28;20434;-42
2024/03/01 05:49:03;;;;;;;32.37;25.30;;;8.90;99.90;;;;;;5076849;28;20411;-42
2024/03/01 05:51:28;;;;;;;31.10;23.40;;;8.90;99.90;;;;;;5078417;28;20288;-43
2024/03/01 05:53:54;;;;;;;34.37;25.03;;;8.90;99.90;;;;;;5077224;28;20624;-43
2024/03/01 05:56:20;;;;;;;28.20;23.37;;;8.90;99.90;;;;;;5076001;28;20478;-43
2024/03/01 05:58:46;;;;;;;31.53;24.97;;;8.90;99.90;;;;;;5076679;28;20682;-42
2024/03/01 06:01:12;;;;;;;30.77;24.13;;;8.90;99.90;;;;;;5076530;28;20598;-42
2024/03/01 06:03:40;;;;;;;28.30;23.37;;;9.00;99.90;;;;;;5074455;28;20579;-43
2024/03/01 06:06:08;;;;;;;30.50;23.60;;;9.00;99.90;;;;;;5057443;28;20706;-41
2024/03/01 06:08:35;;;;;;;33.33;24.40;;;9.00;99.90;;;;;;5073884;28;20694;-42
2024/03/01 06:11:04;;;;;;;32.37;24.33;;;9.00;99.90;;;;;;5057176;28;20424;-41
2024/03/01 06:13:30;;;;;;;29.20;22.63;;;9.00;99.90;;;;;;5075651;28;20477;-43
2024/03/01 06:15:56;;;;;;;28.80;22.93;;;9.00;99.90;;;;;;5075295;28;20546;-41
2024/03/01 06:18:21;;;;;;;37.37;24.47;;;9.00;99.90;;;;;;5077372;28;20208;-40
2024/03/01 06:20:47;;;;;;;33.17;23.67;;;9.00;99.90;;;;;;5078952;28;20173;-41
2024/03/01 06:23:13;;;;;;;31.20;22.77;;;9.00;99.90;;;;;;5078923;28;20511;-41
2024/03/01 06:25:38;;;;;;;31.73;22.17;;;9.00;99.90;;;;;;5078468;28;20185;-44
2024/03/01 06:28:04;;;;;;;29.60;23.67;;;9.00;99.90;;;;;;5077491;28;20180;-42
2024/03/01 06:30:30;;;;;;;29.70;24.10;;;9.00;99.90;;;;;;5076813;28;20201;-41
2024/03/01 06:32:57;;;;;;;30.93;22.23;;;9.00;99.90;;;;;;5059147;28;20181;-40
2024/03/01 06:35:24;;;;;;;29.93;22.80;;;9.00;99.90;;;;;;5079949;28;20307;-41
2024/03/01 06:37:49;;;;;;;24.90;21.20;;;9.10;99.90;;;;;;5074722;28;20547;-43
2024/03/01 06:40:15;;;;;;;29.93;21.20;;;9.10;99.90;;;;;;5057685;28;20442;-43
2024/03/01 06:42:41;;;;;;;31.47;22.90;;;9.10;99.90;;;;;;5074277;28;20535;-42
2024/03/01 06:45:08;;;;;;;29.40;21.40;;;9.10;99.90;;;;;;5074132;28;20427;-43
2024/03/01 06:47:34;;;;;;;29.13;22.43;;;9.10;47.20;;;;;;5075014;28;20455;-43
2024/03/01 06:50:01;;;;;;;27.80;22.20;;;9.20;1.00;;;;;;5056060;28;20420;-41
2024/03/01 06:52:26;;;;;;;25.90;21.30;;;9.20;1.00;;;;;;5057469;28;20876;-43
2024/03/01 06:54:52;;;;;;;29.30;20.77;;;9.20;1.00;;;;;;5073851;28;20529;-41
2024/03/01 06:57:18;;;;;;;26.37;21.07;;;9.20;1.00;;;;;;5074081;28;20188;-42
2024/03/01 06:59:43;;;;;;;26.10;21.10;;;9.30;1.00;;;;;;5074204;28;20173;-42
2024/03/01 07:02:09;;;;;;;24.47;19.50;;;9.30;99.90;;;;;;5075499;28;20173;-42
2024/03/01 07:04:35;;;;;;;29.37;21.50;;;9.40;99.90;;;;;;5057352;28;20579;-41
2024/03/01 07:07:01;;;;;;;30.87;21.67;;;9.40;99.90;;;;;;5077240;28;20418;-41
2024/03/01 07:09:26;;;;;;;24.57;19.10;;;9.50;99.90;;;;;;5075560;28;20192;-41
2024/03/01 07:11:52;;;;;;;27.20;20.63;;;9.50;23.50;;;;;;5076968;28;20549;-41
2024/03/01 07:14:18;;;;;;;24.67;19.20;;;9.60;1.00;;;;;;5075789;28;20176;-41
2024/03/01 07:16:44;;;;;;;27.93;20.90;;;9.60;1.00;;;;;;5092670;28;20208;-41
2024/03/01 07:19:10;;;;;;;24.83;19.00;;;9.70;99.90;;;;;;5094226;28;20259;-42
2024/03/01 07:21:36;;;;;;;27.80;20.77;;;9.70;59.60;;;;;;5094980;28;20917;-42
2024/03/01 07:24:03;;;;;;;21.73;18.50;;;9.80;1.00;;;;;;5092265;28;20468;-49
2024/03/01 07:26:29;;;;;;;22.80;18.80;;;9.80;1.00;;;;;;5074939;28;20188;-42
2024/03/01 07:28:55;;;;;;;24.07;19.67;;;9.90;99.90;;;;;;5093981;28;20473;-41
2024/03/01 07:31:21;;;;;;;21.43;16.60;;;9.90;99.90;;;;;;5095237;28;20438;-42
2024/03/01 07:33:47;;;;;;;24.20;18.63;;;10.00;99.90;;;;;;5096727;28;20587;-43
2024/03/01 07:36:12;;;;;;;23.07;18.57;;;10.10;6.80;;;;;;5096008;28;20294;-42
2024/03/01 07:38:39;;;;;;;24.77;18.80;;;10.10;1.00;;;;;;5096835;28;20422;-42
2024/03/01 07:41:05;;;;;;;20.80;17.90;;;10.10;1.00;;;;;;5096378;28;20175;-40
2024/03/01 07:43:31;;;;;;;23.33;17.87;;;10.20;99.90;;;;;;5097566;28;20493;-43
2024/03/01 07:45:56;;;;;;;18.00;15.20;;;10.20;99.90;;;;;;5096592;28;20493;-41
2024/03/01 07:48:22;;;;;;;20.70;16.50;;;10.30;50.40;;;;;;5094468;28;20191;-43
2024/03/01 07:50:48;;;;;;;21.13;17.60;;;10.30;1.00;;;;;;5093428;28;20434;-41
2024/03/01 07:53:13;;;;;;;22.07;16.17;;;10.40;1.00;;;;;;5092058;28;20282;-42
2024/03/01 07:55:39;;;;;;;21.37;16.97;;;10.50;1.00;;;;;;5093595;28;20215;-40
2024/03/01 07:58:05;;;;;;;20.03;16.27;;;10.50;99.90;;;;;;5056400;28;20265;-43
2024/03/01 08:00:31;;;;;;;19.40;16.00;;;10.60;99.90;;;;;;5077181;28;20386;-43
2024/03/01 08:03:07;;;;;;;18.30;14.70;;;10.70;99.90;;;;;;5060364;28;20419;-41
2024/03/01 08:05:38;;;;;;;18.57;16.00;;;10.80;99.90;;;;;;5078709;28;20426;-42
2024/03/01 08:08:04;;;;;;;18.40;15.40;;;10.90;14.10;;;;;;5078690;28;20431;-43
2024/03/01 08:10:33;;;;;;;21.27;15.23;;;11.00;1.00;;;;;;5077116;28;20751;-43
2024/03/01 08:13:01;;;;;;;18.73;15.80;;;11.20;1.00;;;;;;5063855;28;20487;-43
2024/03/01 08:15:32;;;;;;;18.23;14.97;;;11.30;1.00;;;;;;5040786;28;20861;-42
2024/03/01 08:17:58;;;;;;;17.00;14.30;;;11.30;1.00;;;;;;5057508;28;20428;-42
2024/03/01 08:20:53;;;;;;;15.37;13.27;;;11.40;99.90;;;;;;5040719;28;20420;-42
2024/03/01 08:23:18;;;;;;;21.30;16.10;;;11.40;99.90;;;;;;5039903;28;20441;-42
2024/03/01 08:25:44;;;;;;;19.20;14.83;;;11.50;99.90;;;;;;5058570;28;20442;-41
2024/03/01 08:28:10;;;;;;;17.43;14.57;;;11.50;99.90;;;;;;5040795;28;20185;-41
2024/03/01 08:30:46;;;;;;;13.33;10.87;;;11.50;99.90;;;;;;5058917;28;20196;-43
2024/03/01 08:33:20;;;;;;;9.43;7.13;;;11.60;1.00;;;;;;5059234;28;20273;-42
2024/03/01 08:35:47;;;;;;;9.80;6.33;;;12.10;1.00;;;;;;5041809;28;20475;-42
2024/03/01 08:38:35;;;;;;;10.50;7.20;;;12.60;99.90;;;;;;5059306;28;20714;-43
2024/03/01 08:41:03;;;;;;;11.00;7.60;;;13.20;1.00;;;;;;5067817;28;20427;-43
2024/03/01 08:43:29;;;;;;;12.90;8.03;;;13.70;99.90;;;;;;5077864;28;20507;-41
2024/03/01 08:45:58;;;;;;;11.97;8.10;;;14.10;99.90;;;;;;5077855;28;20736;-41
2024/03/01 08:48:24;;;;;;;7.60;6.37;;;14.50;1.00;;;;;;5060535;28;20435;-42
2024/03/01 08:50:51;;;;;;;9.87;7.67;;;14.70;99.90;;;;;;5060487;28;20500;-44
2024/03/01 08:53:45;;;;;;;11.70;8.40;;;15.00;1.00;;;;;;5076513;28;20242;-41
2024/03/01 08:56:20;;;;;;;7.20;6.50;;;15.20;1.00;;;;;;5077689;28;20471;-41
2024/03/01 08:58:47;;;;;;;8.53;7.57;;;15.40;99.90;;;;;;5077537;28;20576;-41
2024/03/01 09:01:45;;;;;;;9.63;7.90;;;15.50;99.90;;;;;;5077906;28;20416;-42
2024/03/01 09:04:31;;;;;;;9.87;7.90;;;15.60;99.90;;;;;;5060194;28;20419;-45
2024/03/01 09:07:15;;;;;;;7.57;6.67;;;15.60;1.00;;;;;;5077915;28;20426;-43
2024/03/01 09:09:42;;;;;;;9.07;8.17;;;15.60;1.00;;;;;;5078867;28;20857;-42
2024/03/01 09:12:09;;;;;;;11.63;7.67;;;15.70;1.00;;;;;;5085411;28;20568;-43
2024/03/01 09:14:35;;;;;;;11.40;7.13;;;15.60;1.00;;;;;;5097793;28;20426;-41
2024/03/01 09:17:01;;;;;;;8.90;8.03;;;15.60;1.00;;;;;;5098056;28;20500;-41
2024/03/01 09:19:31;;;;;;;7.73;5.20;;;15.70;1.00;;;;;;5097805;28;20171;-44
2024/03/01 09:21:57;;;;;;;5.40;4.60;;;15.50;1.00;;;;;;5094165;28;20410;-45
2024/03/01 09:24:24;;;;;;;7.57;5.90;;;15.40;1.00;;;;;;5117836;28;20719;-42
2024/03/01 09:26:50;;;;;;;10.93;7.03;;;15.40;1.00;;;;;;5107121;28;20461;-42
2024/03/01 09:29:33;;;;;;;7.53;6.47;;;15.30;1.00;;;;;;5097587;28;20435;-43
2024/03/01 09:31:59;;;;;;;9.23;7.13;;;14.90;1.00;;;;;;5096867;28;20181;-41
2024/03/01 09:34:34;;;;;;;9.77;8.40;;;14.60;1.00;;;;;;5095211;28;20411;-44
2024/03/01 09:37:02;;;;;;;10.20;7.03;;;14.20;1.00;;;;;;5079448;28;20413;-44
2024/03/01 09:39:30;;;;;;;10.30;8.70;;;13.80;1.00;;;;;;5096688;28;20440;-41
2024/03/01 09:42:02;;;;;;;11.30;9.17;;;13.60;1.00;;;;;;5077099;28;20699;-40
2024/03/01 09:44:33;;;;;;;9.33;8.40;;;13.40;1.00;;;;;;5094238;28;20467;-41
2024/03/01 09:47:14;;;;;;;9.40;8.37;;;13.20;1.00;;;;;;5096828;28;20429;-51
2024/03/01 09:50:03;;;;;;;10.43;8.80;;;13.00;1.00;;;;;;5060872;28;20441;-42
2024/03/01 09:52:34;;;;;;;12.73;9.10;;;12.80;1.00;;;;;;5077605;28;20796;-41
2024/03/01 09:55:16;;;;;;;10.50;9.40;;;12.80;1.00;;;;;;5078611;28;20458;-41
2024/03/01 09:58:19;;;;;;;12.77;8.60;;;12.70;15.50;;;;;;5097184;28;20418;-45
2024/03/01 10:01:16;;;;;;;10.20;8.40;;;12.70;89.10;;;;;;5098299;28;20452;-41
2024/03/01 10:03:44;;;;;;;12.57;9.43;;;12.70;99.90;;;;;;5073298;28;20414;-41
2024/03/01 10:06:16;;;;;;;10.03;8.83;;;12.70;99.90;;;;;;5097680;28;20419;-43
2024/03/01 10:09:13;;;;;;;6.73;4.43;;;12.80;1.00;;;;;;5094297;28;20422;-47
2024/03/01 10:11:56;;;;;;;6.57;5.03;;;13.80;1.00;;;;;;5095612;28;20466;-44
2024/03/01 10:14:44;;;;;;;5.73;4.43;;;14.90;1.00;;;;;;5078952;28;20430;-44
2024/03/01 10:17:34;;;;;;;10.03;5.50;;;15.80;18.10;;;;;;5096723;28;20542;-45
2024/03/01 10:20:09;;;;;;;7.27;5.03;;;16.40;99.90;;;;;;5096395;28;20933;-46
2024/03/01 10:23:02;;;;;;;6.23;5.63;;;17.10;1.40;;;;;;5096479;28;20687;-46
2024/03/01 10:25:32;;;;;;;6.53;4.87;;;17.60;1.00;;;;;;5095208;28;20453;-44
2024/03/01 10:28:02;;;;;;;6.70;5.67;;;17.90;1.00;;;;;;5096122;28;20415;-44
2024/03/01 10:30:31;;;;;;;6.10;5.27;;;18.00;1.00;;;;;;5094230;28;20498;-43
2024/03/01 10:33:19;;;;;;;6.60;5.93;;;18.10;1.00;;;;;;5076997;28;20704;-48
2024/03/01 10:35:58;;;;;;;5.87;4.37;;;18.20;1.00;;;;;;5094820;28;20714;-45
2024/03/01 10:38:47;;;;;;;11.07;9.23;;;18.30;1.00;;;;;;5076539;28;20430;-43
2024/03/01 10:41:21;;;;;;;11.83;9.60;;;18.00;1.00;;;;;;5078475;28;20529;-42
2024/03/01 10:43:52;;;;;;;9.27;8.33;;;17.60;99.90;;;;;;5075120;28;20431;-43
2024/03/01 10:46:24;;;;;;;13.00;9.33;;;17.20;99.90;;;;;;5077708;28;20430;-43
2024/03/01 10:49:02;;;;;;;11.63;9.23;;;16.70;99.90;;;;;;5075934;28;20434;-41
2024/03/01 10:51:34;;;;;;;10.23;9.23;;;16.40;99.90;;;;;;5077062;28;20715;-43
2024/03/01 10:54:05;;;;;;;11.90;8.77;;;16.20;1.00;;;;;;5062445;28;20438;-41
2024/03/01 10:56:31;;;;;;;9.90;8.80;;;16.00;1.00;;;;;;5061599;28;20470;-42
2024/03/01 10:58:57;;;;;;;7.03;6.30;;;15.90;1.00;;;;;;5075475;28;20434;-41
2024/03/01 11:01:36;;;;;;;7.80;5.80;;;15.90;1.00;;;;;;5077039;28;20181;-42
2024/03/01 11:04:23;;;;;;;16.10;7.60;;;16.20;1.00;;;;;;5095387;28;20422;-42
2024/03/01 11:07:26;;;;;;;7.47;6.70;;;16.50;1.00;;;;;;5095902;28;20422;-45
2024/03/01 11:10:03;;;;;;;7.57;6.80;;;16.70;1.00;;;;;;5042981;28;20438;-44
2024/03/01 11:12:40;;;;;;;9.50;8.27;;;16.80;1.00;;;;;;5076374;28;20512;-41
2024/03/01 11:15:20;;;;;;;11.80;9.63;;;16.90;1.00;;;;;;5075924;28;20486;-42
2024/03/01 11:17:50;;;;;;;9.87;8.87;;;17.00;1.00;;;;;;5092856;28;20417;-41
2024/03/01 11:20:37;;;;;;;8.53;7.63;;;17.10;1.00;;;;;;5074551;28;20415;-41
2024/03/01 11:23:17;;;;;;;10.23;9.07;;;17.20;1.00;;;;;;5093503;28;20475;-43
2024/03/01 11:26:15;;;;;;;9.27;8.30;;;17.40;99.90;;;;;;5092602;28;20425;-41
2024/03/01 11:28:45;;;;;;;9.50;8.47;;;17.70;99.90;;;;;;5071955;28;20434;-42
2024/03/01 11:31:30;;;;;;;10.00;7.57;;;18.00;99.90;;;;;;5074005;28;20483;-42
2024/03/01 11:34:02;;;;;;;8.63;7.27;;;18.30;99.90;;;;;;5094728;28;20480;-41
2024/03/01 11:36:52;;;;;;;8.90;8.00;;;18.50;99.90;;;;;;5091456;28;20458;-42
2024/03/01 11:39:26;;;;;;;7.40;6.60;;;18.60;99.90;;;;;;5096043;28;20514;-41
2024/03/01 11:42:03;;;;;;;8.13;7.33;;;18.90;99.90;;;;;;5114681;28;20417;-43
2024/03/01 11:44:32;;;;;;;8.70;7.80;;;19.20;99.90;;;;;;5115257;28;20546;-41
2024/03/01 11:47:10;;;;;;;8.40;7.60;;;19.50;99.90;;;;;;5113500;28;20799;-39
2024/03/01 11:49:50;;;;;;;7.80;7.00;;;19.50;99.90;;;;;;5093606;28;20782;-41
2024/03/01 11:52:16;;;;;;;8.57;6.50;;;19.50;99.90;;;;;;5109313;28;20437;-42
2024/03/01 11:54:56;;;;;;;7.77;6.93;;;19.50;99.90;;;;;;5110069;28;20936;-42
2024/03/01 11:57:43;;;;;;;7.53;6.83;;;19.40;99.90;;;;;;5109618;28;20222;-42
2024/03/01 12:00:33;;;;;;;9.10;6.90;;;19.20;99.90;;;;;;5111670;28;20419;-46
2024/03/01 12:03:08;;;;;;;7.10;6.40;;;19.00;99.90;;;;;;5113324;28;20486;-44
2024/03/01 12:06:00;;;;;;;8.93;8.10;;;18.80;99.90;;;;;;5112684;28;20826;-42
2024/03/01 12:08:36;;;;;;;8.63;7.80;;;18.40;99.90;;;;;;5113357;28;20429;-44
2024/03/01 12:11:26;;;;;;;8.30;7.57;;;18.10;99.90;;;;;;5114461;28;20856;-47
2024/03/01 12:13:59;;;;;;;6.30;5.53;;;17.80;99.90;;;;;;5115270;28;20448;-40
2024/03/01 12:16:49;;;;;;;6.23;5.27;;;17.50;99.90;;;;;;5096821;28;20481;-42
2024/03/01 12:19:37;;;;;;;6.37;5.77;;;17.20;99.90;;;;;;5116018;28;20654;-43
2024/03/01 12:22:25;;;;;;;6.20;5.40;;;16.70;99.90;;;;;;5098208;28;20402;-42
2024/03/01 12:24:51;;;;;;;6.00;5.40;;;16.40;99.90;;;;;;5112659;28;20431;-43
2024/03/01 12:27:17;;;;;;;5.67;5.07;;;16.20;99.90;;;;;;5112289;28;20398;-43
2024/03/01 12:30:13;;;;;;;6.70;5.87;;;16.10;99.90;;;;;;5111967;28;20839;-42
2024/03/01 12:33:18;;;;;;;6.33;5.60;;;15.90;99.90;;;;;;5112890;28;20558;-44
2024/03/01 12:35:46;;;;;;;5.73;5.17;;;15.70;99.90;;;;;;5112535;28;20472;-41
2024/03/01 12:38:17;;;;;;;5.87;4.80;;;15.60;99.90;;;;;;5112845;28;20413;-42
2024/03/01 12:41:20;;;;;;;5.73;5.23;;;15.40;99.90;;;;;;5097402;28;20536;-43
2024/03/01 12:43:55;;;;;;;7.53;5.73;;;15.20;99.90;;;;;;5043599;28;20432;-42
2024/03/01 12:46:46;;;;;;;6.90;6.20;;;15.10;99.90;;;;;;5116549;28;20421;-43
2024/03/01 12:49:30;;;;;;;7.07;6.37;;;15.00;99.90;;;;;;5119298;28;20462;-43
2024/03/01 12:52:15;;;;;;;6.80;6.10;;;14.90;99.90;;;;;;5118657;28;20413;-40
2024/03/01 12:54:58;;;;;;;7.70;6.90;;;14.90;99.90;;;;;;5117372;28;20736;-42
2024/03/01 12:57:38;;;;;;;7.20;5.10;;;14.90;99.90;;;;;;5099435;28;20481;-42
2024/03/01 13:00:14;;;;;;;6.00;5.40;;;15.10;1.00;;;;;;5097813;28;20876;-41
2024/03/01 13:02:42;;;;;;;11.10;5.23;;;15.50;1.00;;;;;;5097379;28;20884;-41